METAR AND TAF INFORMATION
METAR FOR LFRS
ADDS - METARS form results

(0753 UTC 15 September 2019)
Data provider http://aviationweather.gov/metar/data/
 
METAR text: LFRS 150730Z AUTO 02007KT 350V050 CAVOK 19/15 Q1024 NOSIG
Conditions at: LFRS (NANTES/CHATEAU B, FR) observed 0730 UTC 15 September 2019
Temperature: 19.0°C (66°F)
Dewpoint: 15.0°C (59°F) [RH = 78%]
Pressure (altimeter): 30.24 inches Hg (1024.0 mb)
Winds: from the NNE (20 degrees) at 8 MPH (7 knots; 3.6 m/s)
Visibility: 6 or more miles (10+ km)
Ceiling: ceiling and visibility are OK
Clouds: unknown
Weather: no significant weather observed at this time

METAR text: LFRS 150700Z AUTO 03004KT 350V070 CAVOK 18/15 Q1024 NOSIG
Conditions at: LFRS (NANTES/CHATEAU B, FR) observed 0700 UTC 15 September 2019
Temperature: 18.0°C (64°F)
Dewpoint: 15.0°C (59°F) [RH = 83%]
Pressure (altimeter): 30.24 inches Hg (1024.0 mb)
Winds: from the NNE (30 degrees) at 5 MPH (4 knots; 2.1 m/s)
Visibility: 6 or more miles (10+ km)
Ceiling: ceiling and visibility are OK
Clouds: unknown
Weather: no significant weather observed at this time

Forecast for: LFRS (NANTES/CHATEAU B, FR)
Text: TAF LFRS 150500Z 1506/1612 02005KT CAVOK
Forecast period: 0600 UTC 15 September 2019 to 1200 UTC 16 September 2019
Forecast type: FROM: standard forecast or significant change
Winds: from the NNE (20 degrees) at 6 MPH (5 knots; 2.6 m/s)
Visibility: 6 or more miles 10+ km)
Ceiling: unknown
Clouds: missing
Weather: NSW  (no significant weather)

 AIRPORT MAP

 RUNWAY INFORMATION
Runway 03 Runway length 9514 ft Runway width 148 ft
Runway elevation 73 ft Runway displaced threshold 0 ft Runway heading 28
Runway 21 Runway length 9514 ft Runway width 148 ft
Runway elevation 86 ft Runway displaced threshold 694 ft Runway heading 208

 AIRPORT FREQUENCIES
Type APP Name APP Frequency 130.275 MHZ
Type ATIS Name ATIS Frequency 126.925 MHZ
Type GND Name GND Frequency 121.875 MHZ
Type INFO Name INFO Frequency 129.875 MHZ
Type TWR Name TWR Frequency 118.65 MHZ

 AIRPORT NEAR NAVIGATION AIDS
Type NDB Name Nantes Frequency 369 KHZ
Type VOR-DME Name Nantes Frequency 115500 KHZ



Powered by Virtual Airlines Manager [v2.6.2]